createdAt,value
2023-12-26T00:02:06.037Z,99509.06
2023-12-26T00:04:34.125Z,99506.25
2023-12-26T00:07:01.566Z,99508.13
2023-12-26T00:09:29.157Z,99515.81
2023-12-26T00:11:56.672Z,99528.03
2023-12-26T00:14:23.898Z,99535.13
2023-12-26T00:16:51.241Z,99527.16
2023-12-26T00:19:18.711Z,99536.06
2023-12-26T00:21:46.106Z,99530.91
2023-12-26T00:24:13.428Z,99539.38
2023-12-26T00:26:41.326Z,99551.84
2023-12-26T00:29:09.191Z,99536.56
2023-12-26T00:31:41.267Z,99537.00
2023-12-26T00:34:09.899Z,99540.75
2023-12-26T00:36:37.411Z,99541.88
2023-12-26T00:39:05.364Z,99542.97
2023-12-26T00:41:32.892Z,99570.16
2023-12-26T00:44:00.180Z,99555.25
2023-12-26T00:46:27.659Z,99577.13
2023-12-26T00:48:56.248Z,99564.72
2023-12-26T00:51:23.722Z,99558.91
2023-12-26T00:53:51.075Z,99582.47
2023-12-26T00:56:18.514Z,99578.25
2023-12-26T00:58:45.812Z,99578.75
2023-12-26T01:01:13.124Z,99588.66
2023-12-26T01:03:40.453Z,99569.56
2023-12-26T01:06:08.033Z,99570.59
2023-12-26T01:08:35.394Z,99567.03
2023-12-26T01:11:03.722Z,99551.91
2023-12-26T01:13:35.964Z,99565.03
2023-12-26T01:16:04.944Z,99567.06
2023-12-26T01:18:33.168Z,99547.84
2023-12-26T01:21:00.628Z,99567.22
2023-12-26T01:23:28.397Z,99570.63
2023-12-26T01:25:55.710Z,99556.91
2023-12-26T01:28:23.014Z,99563.75
2023-12-26T01:30:50.271Z,99558.59
2023-12-26T01:33:17.756Z,99562.31
2023-12-26T01:35:45.111Z,99561.97
2023-12-26T01:38:12.391Z,99564.59
2023-12-26T01:40:42.149Z,99556.06
2023-12-26T01:43:10.484Z,99548.78
2023-12-26T01:45:37.892Z,99572.66
2023-12-26T01:48:07.709Z,99539.69
2023-12-26T01:50:36.345Z,99571.47
2023-12-26T01:53:04.053Z,99565.53
2023-12-26T01:55:32.289Z,99576.88
2023-12-26T01:58:02.167Z,99572.47
2023-12-26T02:00:29.780Z,99578.22
2023-12-26T02:02:57.548Z,99582.72
2023-12-26T02:05:25.217Z,99600.41
2023-12-26T02:07:54.286Z,99585.00
2023-12-26T02:10:21.495Z,99579.66
2023-12-26T02:12:48.780Z,99589.56
2023-12-26T02:15:16.251Z,99569.75
2023-12-26T02:17:45.108Z,99554.34
2023-12-26T02:20:12.899Z,99558.41
2023-12-26T02:22:40.579Z,99585.34
2023-12-26T02:25:09.546Z,99565.94
2023-12-26T02:27:38.622Z,99554.22
2023-12-26T02:30:08.711Z,99570.25
2023-12-26T02:32:40.931Z,99557.88
2023-12-26T02:35:09.283Z,99564.50
2023-12-26T02:37:38.387Z,99573.06
2023-12-26T02:40:06.403Z,99587.88
2023-12-26T02:42:34.209Z,99589.56
2023-12-26T02:45:01.493Z,99587.41
2023-12-26T02:47:28.906Z,99599.00
2023-12-26T02:49:57.210Z,99614.56
2023-12-26T02:52:24.456Z,99605.09
2023-12-26T02:54:51.806Z,99623.66
2023-12-26T02:57:19.120Z,99629.75
2023-12-26T02:59:46.453Z,99625.84
2023-12-26T03:02:13.846Z,99629.75
2023-12-26T03:04:41.069Z,99626.19
2023-12-26T03:07:08.522Z,99631.59
2023-12-26T03:09:35.726Z,99643.81
2023-12-26T03:12:02.931Z,99643.03
2023-12-26T03:14:30.373Z,99642.44
2023-12-26T03:16:57.762Z,99645.00
2023-12-26T03:19:25.313Z,99657.84
2023-12-26T03:21:52.763Z,99671.16
2023-12-26T03:24:20.116Z,99670.13
2023-12-26T03:26:47.380Z,99664.31
2023-12-26T03:29:14.610Z,99663.44
2023-12-26T03:31:47.942Z,99661.59
2023-12-26T03:34:15.349Z,99676.00
2023-12-26T03:36:46.925Z,99670.88
2023-12-26T03:39:14.490Z,99677.38
2023-12-26T03:41:42.190Z,99704.06
2023-12-26T03:44:09.493Z,99713.41
2023-12-26T03:46:36.740Z,99691.97
2023-12-26T03:49:04.064Z,99706.25
2023-12-26T03:51:32.747Z,99696.00
2023-12-26T03:54:00.555Z,99710.19
2023-12-26T03:56:37.210Z,99706.81
2023-12-26T03:59:05.291Z,99714.06
2023-12-26T04:01:32.551Z,99737.34
2023-12-26T04:04:00.456Z,99723.63
2023-12-26T04:06:28.297Z,99715.56
2023-12-26T04:08:55.675Z,99737.50
2023-12-26T04:11:24.249Z,99740.00
2023-12-26T04:13:51.587Z,99736.28
2023-12-26T04:16:18.923Z,99725.00
2023-12-26T04:18:46.443Z,99737.66
2023-12-26T04:21:13.937Z,99737.84
2023-12-26T04:23:41.247Z,99747.66
2023-12-26T04:26:08.579Z,99754.91
2023-12-26T04:28:35.883Z,99779.91
2023-12-26T04:31:04.606Z,99801.72
2023-12-26T04:33:32.449Z,99790.22
2023-12-26T04:36:00.180Z,99799.09
2023-12-26T04:38:27.451Z,99813.06
2023-12-26T04:40:55.816Z,99818.59
2023-12-26T04:43:23.095Z,99808.13
2023-12-26T04:45:50.455Z,99808.00
2023-12-26T04:48:17.959Z,99810.75
2023-12-26T04:50:45.257Z,99808.38
2023-12-26T04:53:12.555Z,99817.28
2023-12-26T04:55:39.793Z,99832.38
2023-12-26T04:58:07.235Z,99822.63
2023-12-26T05:00:34.808Z,99822.78
2023-12-26T05:03:02.659Z,99833.56
2023-12-26T05:05:31.483Z,99832.53
2023-12-26T05:07:58.733Z,99840.69
2023-12-26T05:10:26.076Z,99845.25
2023-12-26T05:12:54.338Z,99851.72
2023-12-26T05:15:22.651Z,99866.63
2023-12-26T05:17:50.123Z,99856.38
2023-12-26T05:20:29.710Z,99872.16
2023-12-26T05:22:59.399Z,99876.56
2023-12-26T05:25:27.898Z,99891.50
2023-12-26T05:27:55.781Z,99888.13
2023-12-26T05:30:23.839Z,99899.53
2023-12-26T05:32:51.384Z,99900.22
2023-12-26T05:35:21.595Z,99903.00
2023-12-26T05:37:49.751Z,99901.41
2023-12-26T05:40:17.389Z,99908.44
2023-12-26T05:42:44.759Z,99916.13
2023-12-26T05:45:12.138Z,99927.69
2023-12-26T05:47:40.214Z,99923.97
2023-12-26T05:50:08.533Z,99916.28
2023-12-26T05:52:36.515Z,99938.88
2023-12-26T05:55:04.291Z,99934.56
2023-12-26T05:57:31.584Z,99932.28
2023-12-26T05:59:59.730Z,99946.56
2023-12-26T06:02:27.785Z,99934.47
2023-12-26T06:04:55.375Z,99940.34
2023-12-26T06:07:22.597Z,99950.31
2023-12-26T06:09:51.055Z,99952.59
2023-12-26T06:12:19.080Z,99946.50
2023-12-26T06:14:46.536Z,99945.81
2023-12-26T06:17:15.229Z,99961.59
2023-12-26T06:19:42.757Z,99965.00
2023-12-26T06:22:10.055Z,99974.47
2023-12-26T06:24:37.546Z,99967.72
2023-12-26T06:27:06.511Z,99972.00
2023-12-26T06:29:33.835Z,99984.75
2023-12-26T06:32:01.050Z,99978.69
2023-12-26T06:34:28.654Z,99982.16
2023-12-26T06:36:56.173Z,99994.84
2023-12-26T06:39:23.592Z,99994.84
2023-12-26T06:41:51.441Z,99989.47
2023-12-26T06:44:18.742Z,99990.25
2023-12-26T06:46:46.029Z,100000.81
2023-12-26T06:49:18.117Z,100006.16
2023-12-26T06:51:47.798Z,100007.03
2023-12-26T06:54:16.390Z,100026.09
2023-12-26T06:56:43.749Z,100018.94
2023-12-26T06:59:11.106Z,100030.16
2023-12-26T07:01:38.638Z,100028.47
2023-12-26T07:04:06.691Z,100030.84
2023-12-26T07:06:37.631Z,100046.06
2023-12-26T07:09:05.036Z,100047.50
2023-12-26T07:11:32.857Z,100039.50
2023-12-26T07:14:00.160Z,100038.31
2023-12-26T07:16:28.257Z,100048.53
2023-12-26T07:18:55.625Z,100041.44
2023-12-26T07:21:23.649Z,100044.84
2023-12-26T07:23:53.427Z,100057.88
2023-12-26T07:26:22.654Z,100053.38
2023-12-26T07:28:49.865Z,100062.25
2023-12-26T07:31:23.980Z,100070.13
2023-12-26T07:33:52.714Z,100078.78
2023-12-26T07:36:20.191Z,100078.50
2023-12-26T07:38:47.496Z,100082.06
2023-12-26T07:41:14.780Z,100102.69
2023-12-26T07:43:42.039Z,100101.63
2023-12-26T07:46:09.367Z,100106.81
2023-12-26T07:48:36.942Z,100108.28
2023-12-26T07:51:04.592Z,100114.53
2023-12-26T07:53:32.017Z,100111.56
2023-12-26T07:56:01.096Z,100117.38
2023-12-26T07:58:28.634Z,100119.81
2023-12-26T08:00:56.108Z,100137.91
2023-12-26T08:03:23.614Z,100132.66
2023-12-26T08:05:51.066Z,100133.28
2023-12-26T08:08:18.365Z,100129.59
2023-12-26T08:10:48.313Z,100130.34
2023-12-26T08:13:15.759Z,100128.31
2023-12-26T08:15:43.602Z,100137.97
2023-12-26T08:18:11.151Z,100148.19
2023-12-26T08:20:38.853Z,100163.69
2023-12-26T08:23:06.217Z,100145.00
2023-12-26T08:25:33.568Z,100142.94
2023-12-26T08:28:00.927Z,100148.97
2023-12-26T08:30:28.740Z,100146.25
2023-12-26T08:32:56.317Z,100149.41
2023-12-26T08:35:23.882Z,100164.84
2023-12-26T08:37:51.256Z,100163.88
2023-12-26T08:40:20.199Z,100155.53
2023-12-26T08:42:47.533Z,100148.50
2023-12-26T08:45:14.965Z,100182.38
2023-12-26T08:47:43.002Z,100157.56
2023-12-26T08:50:10.525Z,100157.97
2023-12-26T08:52:37.889Z,100168.44
2023-12-26T08:55:05.632Z,100143.84
2023-12-26T08:57:32.966Z,100154.09
2023-12-26T09:00:01.499Z,100168.94
2023-12-26T09:02:29.359Z,100175.63
2023-12-26T09:04:56.678Z,100186.75
2023-12-26T09:07:24.061Z,100184.75
2023-12-26T09:09:51.315Z,100185.59
2023-12-26T09:12:18.597Z,100179.28
2023-12-26T09:14:45.987Z,100178.09
2023-12-26T09:17:13.366Z,100168.66
2023-12-26T09:19:41.472Z,100173.78
2023-12-26T09:22:09.428Z,100179.72
2023-12-26T09:24:36.821Z,100199.00
2023-12-26T09:27:04.563Z,100196.53
2023-12-26T09:29:31.998Z,100182.88
2023-12-26T09:31:59.278Z,100200.41
2023-12-26T09:34:26.696Z,100192.78
2023-12-26T09:36:54.575Z,100191.09
2023-12-26T09:39:21.977Z,100202.25
2023-12-26T09:41:56.729Z,100211.44
2023-12-26T09:44:24.332Z,100218.41
2023-12-26T09:46:52.807Z,100228.53
2023-12-26T09:49:21.648Z,100229.47
2023-12-26T09:51:51.916Z,100214.16
2023-12-26T09:54:22.438Z,100208.19
2023-12-26T09:56:50.857Z,100210.53
2023-12-26T09:59:20.419Z,100213.22
2023-12-26T10:01:48.152Z,100217.50
2023-12-26T10:04:15.910Z,100214.09
2023-12-26T10:06:43.637Z,100211.81
2023-12-26T10:09:11.168Z,100226.22
2023-12-26T10:11:45.151Z,100215.31
2023-12-26T10:14:12.924Z,100248.53
2023-12-26T10:16:40.263Z,100208.38
2023-12-26T10:19:14.363Z,100207.19
2023-12-26T10:21:42.069Z,100208.59
2023-12-26T10:24:12.756Z,100214.69
2023-12-26T10:26:40.679Z,100208.59
2023-12-26T10:29:20.407Z,100205.94
2023-12-26T10:31:48.097Z,100232.44
2023-12-26T10:34:17.950Z,100211.28
2023-12-26T10:36:46.438Z,100212.22
2023-12-26T10:39:14.709Z,100204.69
2023-12-26T10:41:45.648Z,100204.94
2023-12-26T10:44:15.846Z,100223.97
2023-12-26T10:46:44.423Z,100214.63
2023-12-26T10:49:14.276Z,100219.44
2023-12-26T10:51:45.666Z,100224.44
2023-12-26T10:54:21.341Z,100196.00
2023-12-26T10:56:52.371Z,100205.84
2023-12-26T11:00:16.393Z,100208.16
2023-12-26T11:03:59.849Z,100197.78
2023-12-26T11:07:42.295Z,100199.16
2023-12-26T11:11:24.866Z,100204.53
2023-12-26T11:15:07.138Z,100210.91
2023-12-26T11:18:49.817Z,100226.81
2023-12-26T11:22:31.931Z,100242.06
2023-12-26T11:26:14.077Z,100257.03
2023-12-26T11:29:56.299Z,100276.63
2023-12-26T11:33:38.945Z,100252.53
2023-12-26T11:37:21.124Z,100278.97
2023-12-26T11:41:03.490Z,100264.00
2023-12-26T11:44:45.540Z,100260.13
2023-12-26T11:48:29.163Z,100261.59
2023-12-26T11:52:11.315Z,100241.34
2023-12-26T11:55:53.551Z,100249.16
2023-12-26T11:59:35.727Z,100280.25
2023-12-26T12:03:18.330Z,100283.06
2023-12-26T12:07:00.871Z,100292.69
2023-12-26T12:10:42.937Z,100285.00
2023-12-26T12:14:25.173Z,100289.09
2023-12-26T12:18:07.521Z,100288.91
2023-12-26T12:21:49.742Z,100282.34
2023-12-26T12:25:31.655Z,100287.69
2023-12-26T12:29:13.484Z,100286.16
2023-12-26T12:32:55.620Z,100305.63
2023-12-26T12:36:37.849Z,100299.72
2023-12-26T12:40:20.388Z,100309.66
2023-12-26T12:44:11.363Z,100319.97
2023-12-26T12:47:57.191Z,100313.94
2023-12-26T12:51:39.317Z,100307.09
2023-12-26T12:55:23.338Z,100328.50
2023-12-26T12:59:07.243Z,100320.75
2023-12-26T13:02:49.455Z,100317.00
2023-12-26T13:06:31.666Z,100330.50
2023-12-26T13:10:13.950Z,100324.38
2023-12-26T13:13:56.144Z,100320.22
2023-12-26T13:17:38.116Z,100325.41
2023-12-26T13:21:20.663Z,100320.31
2023-12-26T13:25:03.495Z,100311.97
2023-12-26T13:28:45.750Z,100322.28
2023-12-26T13:32:27.562Z,100320.56
2023-12-26T13:36:09.603Z,100309.59
2023-12-26T13:39:52.254Z,100316.69
2023-12-26T13:43:35.898Z,100314.34
2023-12-26T13:47:18.355Z,100312.53
2023-12-26T13:51:00.554Z,100309.72
2023-12-26T13:53:46.272Z,100321.50
2023-12-26T13:56:51.431Z,100308.72
2023-12-26T13:59:18.974Z,100306.16
2023-12-26T14:02:23.895Z,100313.13
2023-12-26T14:05:29.321Z,100314.28
2023-12-26T14:07:58.884Z,100321.31
2023-12-26T14:10:26.334Z,100329.38
2023-12-26T14:13:31.186Z,100336.19
2023-12-26T14:15:58.393Z,100340.81
2023-12-26T14:19:03.690Z,100345.31
2023-12-26T14:22:08.904Z,100351.50
2023-12-26T14:24:36.159Z,100356.56
2023-12-26T14:27:40.786Z,100346.16
2023-12-26T14:30:46.524Z,100343.06
2023-12-26T14:33:21.365Z,100348.16
2023-12-26T14:35:50.858Z,100345.53
2023-12-26T14:38:18.508Z,100351.03
2023-12-26T14:41:23.575Z,100355.50
2023-12-26T14:43:54.640Z,100356.13
2023-12-26T14:46:59.494Z,100361.56
2023-12-26T14:49:26.712Z,100360.28
2023-12-26T14:52:31.711Z,100365.25
2023-12-26T14:54:58.924Z,100374.81
2023-12-26T14:57:26.159Z,100370.31
2023-12-26T15:00:31.376Z,100384.19
2023-12-26T15:03:02.430Z,100382.19
2023-12-26T15:05:35.220Z,100374.16
2023-12-26T15:08:04.355Z,100369.75
2023-12-26T15:10:33.017Z,100366.81
2023-12-26T15:13:02.505Z,100364.09
2023-12-26T15:15:30.720Z,100375.50
2023-12-26T15:17:58.428Z,100367.44
2023-12-26T15:20:26.286Z,100377.47
2023-12-26T15:22:53.991Z,100380.34
2023-12-26T15:25:21.514Z,100385.53
2023-12-26T15:27:49.787Z,100378.84
2023-12-26T15:30:17.493Z,100387.03
2023-12-26T15:32:49.687Z,100393.41
2023-12-26T15:35:17.576Z,100389.22
2023-12-26T15:37:45.274Z,100394.00
2023-12-26T15:40:13.059Z,100385.31
2023-12-26T15:42:43.416Z,100376.72
2023-12-26T15:45:11.585Z,100377.19
2023-12-26T15:47:39.110Z,100377.06
2023-12-26T15:50:07.136Z,100374.38
2023-12-26T15:52:34.679Z,100364.59
2023-12-26T15:55:02.192Z,100355.81
2023-12-26T15:57:30.122Z,100352.72
2023-12-26T15:59:57.798Z,100353.50
2023-12-26T16:02:25.147Z,100360.81
2023-12-26T16:04:59.500Z,100361.38
2023-12-26T16:07:28.703Z,100361.16
2023-12-26T16:09:56.024Z,100371.69
2023-12-26T16:12:23.427Z,100356.09
2023-12-26T16:14:56.857Z,100362.44
2023-12-26T16:17:26.334Z,100366.25
2023-12-26T16:19:53.789Z,100358.94
2023-12-26T16:22:21.446Z,100357.31
2023-12-26T16:24:48.712Z,100356.69
2023-12-26T16:27:21.291Z,100357.69
2023-12-26T16:29:48.685Z,100351.59
2023-12-26T16:32:16.056Z,100352.53
2023-12-26T16:34:43.602Z,100346.63
2023-12-26T16:37:10.934Z,100339.50
2023-12-26T16:39:38.335Z,100343.59
2023-12-26T16:42:10.083Z,100346.88
2023-12-26T16:44:47.100Z,100348.59
2023-12-26T16:47:16.912Z,100347.66
2023-12-26T16:49:44.676Z,100358.38
2023-12-26T16:52:12.571Z,100353.97
2023-12-26T16:54:40.623Z,100347.00
2023-12-26T16:57:08.379Z,100360.97
2023-12-26T16:59:39.407Z,100353.00
2023-12-26T17:02:07.428Z,100355.63
2023-12-26T17:04:35.034Z,100355.38
2023-12-26T17:07:03.477Z,100340.59
2023-12-26T17:09:31.237Z,100344.84
2023-12-26T17:11:58.668Z,100329.06
2023-12-26T17:14:26.006Z,100325.53
2023-12-26T17:16:53.633Z,100319.94
2023-12-26T17:19:21.341Z,100315.69
2023-12-26T17:21:51.914Z,100301.03
2023-12-26T17:24:19.624Z,100310.97
2023-12-26T17:27:07.099Z,100306.00
2023-12-26T17:29:53.523Z,100301.59
2023-12-26T17:32:21.085Z,100299.97
2023-12-26T17:34:48.944Z,100290.13
2023-12-26T17:37:16.386Z,100283.94
2023-12-26T17:39:43.932Z,100277.66
2023-12-26T17:42:11.586Z,100275.34
2023-12-26T17:44:40.360Z,100270.00
2023-12-26T17:47:07.778Z,100245.63
2023-12-26T17:49:35.201Z,100251.47
2023-12-26T17:52:03.831Z,100257.97
2023-12-26T17:54:31.393Z,100241.75
2023-12-26T17:56:59.369Z,100239.88
2023-12-26T17:59:26.960Z,100239.03
2023-12-26T18:01:54.724Z,100237.25
2023-12-26T18:04:22.462Z,100231.88
2023-12-26T18:06:50.738Z,100231.81
2023-12-26T18:09:18.429Z,100222.91
2023-12-26T18:11:46.213Z,100227.25
2023-12-26T18:14:13.736Z,100212.28
2023-12-26T18:16:41.788Z,100217.72
2023-12-26T18:19:10.423Z,100205.47
2023-12-26T18:21:42.527Z,100192.94
2023-12-26T18:24:09.964Z,100200.81
2023-12-26T18:26:37.435Z,100191.09
2023-12-26T18:29:04.780Z,100192.59
2023-12-26T18:31:32.276Z,100191.25
2023-12-26T18:34:00.845Z,100189.47
2023-12-26T18:36:28.577Z,100196.25
2023-12-26T18:38:55.869Z,100193.19
2023-12-26T18:41:23.205Z,100190.34
2023-12-26T18:43:50.852Z,100174.53
2023-12-26T18:46:20.533Z,100179.69
2023-12-26T18:48:48.146Z,100170.72
2023-12-26T18:51:26.790Z,100157.34
2023-12-26T18:53:54.203Z,100149.13
2023-12-26T18:56:23.474Z,100140.28
2023-12-26T18:58:51.694Z,100137.31
2023-12-26T19:01:18.995Z,100135.28
2023-12-26T19:03:47.394Z,100139.50
2023-12-26T19:06:15.973Z,100127.28
2023-12-26T19:08:44.622Z,100123.44
2023-12-26T19:11:20.020Z,100124.91
2023-12-26T19:13:47.932Z,100101.06
2023-12-26T19:16:15.695Z,100103.53
2023-12-26T19:18:43.314Z,100077.84
2023-12-26T19:21:11.971Z,100087.56
2023-12-26T19:23:39.987Z,100098.84
2023-12-26T19:26:08.558Z,100092.63
2023-12-26T19:28:38.155Z,100106.75
2023-12-26T19:31:07.016Z,100103.28
2023-12-26T19:33:34.608Z,100111.94
2023-12-26T19:36:01.990Z,100102.78
2023-12-26T19:38:29.470Z,100112.53
2023-12-26T19:40:59.692Z,100106.16
2023-12-26T19:43:27.141Z,100110.41
2023-12-26T19:45:54.524Z,100099.84
2023-12-26T19:48:22.163Z,100105.97
2023-12-26T19:50:49.616Z,100073.47
2023-12-26T19:53:16.954Z,100086.66
2023-12-26T19:55:45.879Z,100080.44
2023-12-26T19:58:13.140Z,100064.47
2023-12-26T20:00:40.517Z,100083.66
2023-12-26T20:03:15.784Z,100093.56
2023-12-26T20:05:58.845Z,100091.00
2023-12-26T20:08:28.244Z,100090.03
2023-12-26T20:10:57.160Z,100091.00
2023-12-26T20:13:24.860Z,100108.88
2023-12-26T20:15:52.322Z,100125.22
2023-12-26T20:18:19.786Z,100112.03
2023-12-26T20:20:47.377Z,100120.72
2023-12-26T20:23:14.718Z,100123.53
2023-12-26T20:25:42.225Z,100112.13
2023-12-26T20:28:09.826Z,100126.75
2023-12-26T20:30:37.310Z,100120.19
2023-12-26T20:33:09.003Z,100106.59
2023-12-26T20:35:36.849Z,100107.88
2023-12-26T20:38:04.537Z,100109.81
2023-12-26T20:40:33.383Z,100102.94
2023-12-26T20:45:27.987Z,100115.09
2023-12-26T20:47:55.560Z,100110.28
2023-12-26T20:50:23.824Z,100116.41
2023-12-26T20:52:51.105Z,100104.44
2023-12-26T20:55:18.726Z,100096.84
2023-12-26T20:57:46.080Z,100106.34
2023-12-26T21:00:14.185Z,100084.00
2023-12-26T21:02:41.486Z,100104.84
2023-12-26T21:05:09.120Z,100108.09
2023-12-26T21:07:36.285Z,100120.97
2023-12-26T21:10:06.578Z,100110.53
2023-12-26T21:12:34.226Z,100104.22
2023-12-26T21:15:01.494Z,100101.00
2023-12-26T21:17:29.286Z,100104.50
2023-12-26T21:19:56.676Z,100096.59
2023-12-26T21:22:24.242Z,100107.03
2023-12-26T21:24:51.759Z,100106.28
2023-12-26T21:27:19.028Z,100100.50
2023-12-26T21:29:47.705Z,100095.31
2023-12-26T21:32:14.853Z,100084.78
2023-12-26T21:34:45.689Z,100080.88
2023-12-26T21:37:13.892Z,100086.19
2023-12-26T21:39:41.916Z,100095.06
2023-12-26T21:42:09.293Z,100096.91
2023-12-26T21:44:40.333Z,100094.66
2023-12-26T21:47:08.752Z,100095.00
2023-12-26T21:49:39.496Z,100101.75
2023-12-26T21:52:06.873Z,100086.31
2023-12-26T21:54:34.302Z,100093.75
2023-12-26T21:57:01.744Z,100085.75
2023-12-26T21:59:29.983Z,100099.03
2023-12-26T22:01:57.145Z,100085.41
2023-12-26T22:04:24.294Z,100090.25
2023-12-26T22:06:51.624Z,100087.59
2023-12-26T22:09:18.961Z,100081.97
2023-12-26T22:11:46.412Z,100093.88
2023-12-26T22:14:13.736Z,100102.00
2023-12-26T22:16:41.392Z,100107.84
2023-12-26T22:19:08.849Z,100095.25
2023-12-26T22:21:40.854Z,100085.72
2023-12-26T22:24:08.324Z,100089.00
2023-12-26T22:26:41.243Z,100093.69
2023-12-26T22:29:09.955Z,100081.72
2023-12-26T22:31:37.519Z,100097.13
2023-12-26T22:34:04.913Z,100093.91
2023-12-26T22:36:32.590Z,100074.88
2023-12-26T22:38:59.978Z,100069.69
2023-12-26T22:41:27.347Z,100088.31
2023-12-26T22:43:54.548Z,100079.69
2023-12-26T22:46:24.518Z,100077.75
2023-12-26T22:48:53.872Z,100069.38
2023-12-26T22:51:22.713Z,100059.78
2023-12-26T22:53:50.220Z,100057.53
2023-12-26T22:56:17.343Z,100072.22
2023-12-26T22:58:44.516Z,100071.09
2023-12-26T23:01:11.713Z,100081.31
2023-12-26T23:03:39.252Z,100088.84
2023-12-26T23:06:06.741Z,100073.88
2023-12-26T23:08:34.023Z,100070.66
2023-12-26T23:11:01.395Z,100068.84
2023-12-26T23:13:29.631Z,100076.19
2023-12-26T23:15:56.788Z,100079.03
2023-12-26T23:18:24.337Z,100093.16
2023-12-26T23:20:51.663Z,100078.19
2023-12-26T23:23:19.685Z,100080.81
2023-12-26T23:25:46.931Z,100070.88
2023-12-26T23:28:14.071Z,100085.38
2023-12-26T23:30:41.281Z,100092.88
2023-12-26T23:33:08.638Z,100087.41
2023-12-26T23:35:35.861Z,100100.44
2023-12-26T23:38:03.289Z,100094.91
2023-12-26T23:40:35.345Z,100094.72
2023-12-26T23:43:02.969Z,100092.22
2023-12-26T23:45:30.301Z,100088.41
2023-12-26T23:47:57.922Z,100087.00
2023-12-26T23:50:26.594Z,100086.75
2023-12-26T23:52:54.044Z,100100.63
2023-12-26T23:55:21.352Z,100086.50
2023-12-26T23:57:48.564Z,100080.31
